Hovedside
METAR-TAF:

METAR-TAF

Lufthavner :

Flystasjon

Tulln an der Donau, Østerrike

breddegrad: 48-19N, lengdegrad: 016-07E, høyde over havet: 175 m

METAR: fraværende

Tid: 11:46 (09:46 UTC)

Varsel

Denne rapporten ble laget for 1 time og 31 minutter siden, klokken 08:15 UTC
Varsel gyldig fra 19. klokken 09 UTC til 19. klokken 18 UTC
Vind 5 kt fra skiftende retning
Sikt 10 km eller mer
Få skyer i en høyde av 5000 ft
Spredte skyer i en høyde av 30000 ft
Midlertidig
fra 19. klokken 13 UTC til 19. klokken 18 UTC
Vind 10 kt fra Øst-sørøst

TAF: LOXT 190815Z 1909/1918 VRB05KT 9999 FEW050 SCT300 TEMPO 1913/1918 12010KT

Værobservasjoner og værvarsel for over 4000 flyplasser (METAR- og TAF-rapporter).

Tilgjengelige stasjoner er representert av de røde og gule prikkene på kartet.

Hold musepekeren over prikken for å se navnet på stasjonen.

Klikk så for å se værobservasjoner og -varsler.

For å forandre kartet kan du klikke på den grønne knappen med svart kryss for å zoome inn, på den grønne knappen med strek for å zoome ut, eller på de grønne pilene for å se tilstøtende kart.


METAR-TAF: